sensor_id;sensor_type;location;lat;lon;timestamp;temperature;humidity
28839;DHT22;15971;50.772;6.100;2022-07-23T00:00:50;18.00;99.90
28839;DHT22;15971;50.772;6.100;2022-07-23T00:03:16;18.00;99.90
28839;DHT22;15971;50.772;6.100;2022-07-23T00:05:42;18.10;99.90
28839;DHT22;15971;50.772;6.100;2022-07-23T00:08:08;18.30;99.90
28839;DHT22;15971;50.772;6.100;2022-07-23T00:10:35;18.10;99.90
28839;DHT22;15971;50.772;6.100;2022-07-23T00:13:00;18.00;99.90
28839;DHT22;15971;50.772;6.100;2022-07-23T00:15:26;18.00;99.90
28839;DHT22;15971;50.772;6.100;2022-07-23T00:17:51;18.20;99.90
28839;DHT22;15971;50.772;6.100;2022-07-23T00:20:17;18.30;99.90
28839;DHT22;15971;50.772;6.100;2022-07-23T00:22:52;18.30;99.90
28839;DHT22;15971;50.772;6.100;2022-07-23T00:25:19;18.40;99.90
28839;DHT22;15971;50.772;6.100;2022-07-23T00:27:44;18.40;99.90
28839;DHT22;15971;50.772;6.100;2022-07-23T00:30:11;18.60;99.90
28839;DHT22;15971;50.772;6.100;2022-07-23T00:32:51;18.60;99.90
28839;DHT22;15971;50.772;6.100;2022-07-23T00:35:20;18.50;99.90
28839;DHT22;15971;50.772;6.100;2022-07-23T00:37:46;18.50;99.90
28839;DHT22;15971;50.772;6.100;2022-07-23T00:40:12;18.40;99.90
28839;DHT22;15971;50.772;6.100;2022-07-23T00:42:38;18.50;99.90
28839;DHT22;15971;50.772;6.100;2022-07-23T00:45:04;18.50;99.90
28839;DHT22;15971;50.772;6.100;2022-07-23T00:47:30;18.40;99.90
28839;DHT22;15971;50.772;6.100;2022-07-23T00:49:56;18.40;99.90
28839;DHT22;15971;50.772;6.100;2022-07-23T00:52:22;18.50;99.90
28839;DHT22;15971;50.772;6.100;2022-07-23T00:54:48;18.70;99.90
28839;DHT22;15971;50.772;6.100;2022-07-23T00:57:14;18.70;99.90
28839;DHT22;15971;50.772;6.100;2022-07-23T00:59:40;18.80;99.90
28839;DHT22;15971;50.772;6.100;2022-07-23T01:02:06;18.80;99.90
28839;DHT22;15971;50.772;6.100;2022-07-23T01:04:31;18.80;99.90
28839;DHT22;15971;50.772;6.100;2022-07-23T01:06:57;18.70;99.90
28839;DHT22;15971;50.772;6.100;2022-07-23T01:09:23;18.80;99.90
28839;DHT22;15971;50.772;6.100;2022-07-23T01:11:50;18.80;99.90
28839;DHT22;15971;50.772;6.100;2022-07-23T01:14:17;18.70;99.90
28839;DHT22;15971;50.772;6.100;2022-07-23T01:16:45;18.50;99.90
28839;DHT22;15971;50.772;6.100;2022-07-23T01:19:12;18.40;99.90
28839;DHT22;15971;50.772;6.100;2022-07-23T01:21:46;18.30;99.90
28839;DHT22;15971;50.772;6.100;2022-07-23T01:24:12;18.20;99.90
28839;DHT22;15971;50.772;6.100;2022-07-23T01:26:44;18.20;99.90
28839;DHT22;15971;50.772;6.100;2022-07-23T01:29:10;18.10;99.90
28839;DHT22;15971;50.772;6.100;2022-07-23T01:31:36;18.20;99.90
28839;DHT22;15971;50.772;6.100;2022-07-23T01:34:01;18.10;99.90
28839;DHT22;15971;50.772;6.100;2022-07-23T01:36:27;18.10;99.90
28839;DHT22;15971;50.772;6.100;2022-07-23T01:38:53;18.00;99.90
28839;DHT22;15971;50.772;6.100;2022-07-23T01:41:19;18.00;99.90
28839;DHT22;15971;50.772;6.100;2022-07-23T01:43:44;18.00;99.90
28839;DHT22;15971;50.772;6.100;2022-07-23T01:46:10;17.80;99.90
28839;DHT22;15971;50.772;6.100;2022-07-23T01:48:36;17.90;99.90
28839;DHT22;15971;50.772;6.100;2022-07-23T01:51:02;17.90;99.90
28839;DHT22;15971;50.772;6.100;2022-07-23T01:53:28;17.90;99.90
28839;DHT22;15971;50.772;6.100;2022-07-23T01:55:57;17.90;99.90
28839;DHT22;15971;50.772;6.100;2022-07-23T01:58:22;17.80;99.90
28839;DHT22;15971;50.772;6.100;2022-07-23T02:00:48;17.80;99.90
28839;DHT22;15971;50.772;6.100;2022-07-23T02:03:13;17.90;99.90
28839;DHT22;15971;50.772;6.100;2022-07-23T02:05:39;17.80;99.90
28839;DHT22;15971;50.772;6.100;2022-07-23T02:08:05;17.90;99.90
28839;DHT22;15971;50.772;6.100;2022-07-23T02:10:31;18.00;99.90
28839;DHT22;15971;50.772;6.100;2022-07-23T02:12:57;17.90;99.90
28839;DHT22;15971;50.772;6.100;2022-07-23T02:15:22;17.80;99.90
28839;DHT22;15971;50.772;6.100;2022-07-23T02:17:48;17.80;99.90
28839;DHT22;15971;50.772;6.100;2022-07-23T02:20:14;17.90;99.90
28839;DHT22;15971;50.772;6.100;2022-07-23T02:22:40;17.80;99.90
28839;DHT22;15971;50.772;6.100;2022-07-23T02:25:07;17.70;99.90
28839;DHT22;15971;50.772;6.100;2022-07-23T02:27:33;17.70;99.90
28839;DHT22;15971;50.772;6.100;2022-07-23T02:29:58;17.70;99.90
28839;DHT22;15971;50.772;6.100;2022-07-23T02:32:24;17.70;99.90
28839;DHT22;15971;50.772;6.100;2022-07-23T02:34:50;17.70;99.90
28839;DHT22;15971;50.772;6.100;2022-07-23T02:37:16;17.60;99.90
28839;DHT22;15971;50.772;6.100;2022-07-23T02:39:42;17.60;99.90
28839;DHT22;15971;50.772;6.100;2022-07-23T02:42:07;17.60;99.90
28839;DHT22;15971;50.772;6.100;2022-07-23T02:44:33;17.60;99.90
28839;DHT22;15971;50.772;6.100;2022-07-23T02:46:59;17.70;99.90
28839;DHT22;15971;50.772;6.100;2022-07-23T02:49:24;17.70;99.90
28839;DHT22;15971;50.772;6.100;2022-07-23T02:51:50;17.70;99.90
28839;DHT22;15971;50.772;6.100;2022-07-23T02:54:15;17.50;99.90
28839;DHT22;15971;50.772;6.100;2022-07-23T02:56:41;17.60;99.90
28839;DHT22;15971;50.772;6.100;2022-07-23T02:59:07;17.60;99.90
28839;DHT22;15971;50.772;6.100;2022-07-23T03:01:32;17.60;99.90
28839;DHT22;15971;50.772;6.100;2022-07-23T03:03:58;17.50;99.90
28839;DHT22;15971;50.772;6.100;2022-07-23T03:06:23;17.50;99.90
28839;DHT22;15971;50.772;6.100;2022-07-23T03:08:49;17.50;99.90
28839;DHT22;15971;50.772;6.100;2022-07-23T03:11:15;17.50;99.90
28839;DHT22;15971;50.772;6.100;2022-07-23T03:13:41;17.50;99.90
28839;DHT22;15971;50.772;6.100;2022-07-23T03:16:07;17.50;99.90
28839;DHT22;15971;50.772;6.100;2022-07-23T03:18:32;17.40;99.90
28839;DHT22;15971;50.772;6.100;2022-07-23T03:20:58;17.40;99.90
28839;DHT22;15971;50.772;6.100;2022-07-23T03:23:24;17.40;99.90
28839;DHT22;15971;50.772;6.100;2022-07-23T03:25:50;17.30;99.90
28839;DHT22;15971;50.772;6.100;2022-07-23T03:28:16;17.20;99.90
28839;DHT22;15971;50.772;6.100;2022-07-23T03:30:43;17.30;99.90
28839;DHT22;15971;50.772;6.100;2022-07-23T03:33:12;17.30;99.90
28839;DHT22;15971;50.772;6.100;2022-07-23T03:35:37;17.30;99.90
28839;DHT22;15971;50.772;6.100;2022-07-23T03:38:03;17.30;99.90
28839;DHT22;15971;50.772;6.100;2022-07-23T03:40:29;17.30;99.90
28839;DHT22;15971;50.772;6.100;2022-07-23T03:42:54;17.30;99.90
28839;DHT22;15971;50.772;6.100;2022-07-23T03:45:20;17.30;99.90
28839;DHT22;15971;50.772;6.100;2022-07-23T03:47:46;17.30;99.90
28839;DHT22;15971;50.772;6.100;2022-07-23T03:50:12;17.30;99.90
28839;DHT22;15971;50.772;6.100;2022-07-23T03:52:37;17.40;99.90
28839;DHT22;15971;50.772;6.100;2022-07-23T03:55:03;17.50;99.90
28839;DHT22;15971;50.772;6.100;2022-07-23T03:57:29;17.60;99.90
28839;DHT22;15971;50.772;6.100;2022-07-23T03:59:55;17.60;99.90
28839;DHT22;15971;50.772;6.100;2022-07-23T04:02:21;17.60;99.90
28839;DHT22;15971;50.772;6.100;2022-07-23T04:04:47;17.60;99.90
28839;DHT22;15971;50.772;6.100;2022-07-23T04:07:13;17.60;99.90
28839;DHT22;15971;50.772;6.100;2022-07-23T04:09:39;17.50;99.90
28839;DHT22;15971;50.772;6.100;2022-07-23T04:12:06;17.60;99.90
28839;DHT22;15971;50.772;6.100;2022-07-23T04:14:32;17.70;99.90
28839;DHT22;15971;50.772;6.100;2022-07-23T04:16:58;17.60;99.90
28839;DHT22;15971;50.772;6.100;2022-07-23T04:19:24;17.80;99.90
28839;DHT22;15971;50.772;6.100;2022-07-23T04:21:50;17.80;99.90
28839;DHT22;15971;50.772;6.100;2022-07-23T04:24:16;17.80;99.90
28839;DHT22;15971;50.772;6.100;2022-07-23T04:26:41;17.90;99.90
28839;DHT22;15971;50.772;6.100;2022-07-23T04:29:07;17.90;99.90
28839;DHT22;15971;50.772;6.100;2022-07-23T04:31:32;17.80;99.90
28839;DHT22;15971;50.772;6.100;2022-07-23T04:33:59;17.70;99.90
28839;DHT22;15971;50.772;6.100;2022-07-23T04:36:24;17.80;99.90
28839;DHT22;15971;50.772;6.100;2022-07-23T04:38:50;17.90;99.90
28839;DHT22;15971;50.772;6.100;2022-07-23T04:41:15;18.00;99.90
28839;DHT22;15971;50.772;6.100;2022-07-23T04:43:41;18.30;99.90
28839;DHT22;15971;50.772;6.100;2022-07-23T04:46:06;18.50;99.90
28839;DHT22;15971;50.772;6.100;2022-07-23T04:48:32;18.70;99.90
28839;DHT22;15971;50.772;6.100;2022-07-23T04:50:58;18.90;99.90
28839;DHT22;15971;50.772;6.100;2022-07-23T04:53:23;19.00;99.90
28839;DHT22;15971;50.772;6.100;2022-07-23T04:55:49;19.20;99.90
28839;DHT22;15971;50.772;6.100;2022-07-23T04:58:14;19.30;99.90
28839;DHT22;15971;50.772;6.100;2022-07-23T05:00:40;19.40;99.90
28839;DHT22;15971;50.772;6.100;2022-07-23T05:03:06;19.30;99.90
28839;DHT22;15971;50.772;6.100;2022-07-23T05:05:31;19.50;99.90
28839;DHT22;15971;50.772;6.100;2022-07-23T05:07:57;19.80;99.90
28839;DHT22;15971;50.772;6.100;2022-07-23T05:10:23;20.00;99.90
28839;DHT22;15971;50.772;6.100;2022-07-23T05:12:48;20.00;99.90
28839;DHT22;15971;50.772;6.100;2022-07-23T05:15:14;19.90;99.90
28839;DHT22;15971;50.772;6.100;2022-07-23T05:17:39;19.90;99.90
28839;DHT22;15971;50.772;6.100;2022-07-23T05:20:05;20.00;99.90
28839;DHT22;15971;50.772;6.100;2022-07-23T05:22:31;20.10;99.90
28839;DHT22;15971;50.772;6.100;2022-07-23T05:24:57;20.00;99.90
28839;DHT22;15971;50.772;6.100;2022-07-23T05:27:23;20.10;99.90
28839;DHT22;15971;50.772;6.100;2022-07-23T05:29:48;20.20;99.90
28839;DHT22;15971;50.772;6.100;2022-07-23T05:32:14;20.50;99.90
28839;DHT22;15971;50.772;6.100;2022-07-23T05:34:39;20.60;99.90
28839;DHT22;15971;50.772;6.100;2022-07-23T05:37:05;20.60;99.90
28839;DHT22;15971;50.772;6.100;2022-07-23T05:39:31;20.60;99.90
28839;DHT22;15971;50.772;6.100;2022-07-23T05:41:57;20.60;99.90
28839;DHT22;15971;50.772;6.100;2022-07-23T05:44:23;20.40;99.90
28839;DHT22;15971;50.772;6.100;2022-07-23T05:46:48;20.30;99.90
28839;DHT22;15971;50.772;6.100;2022-07-23T05:49:14;20.30;99.90
28839;DHT22;15971;50.772;6.100;2022-07-23T05:51:40;20.20;99.90
28839;DHT22;15971;50.772;6.100;2022-07-23T05:54:05;20.30;99.90
28839;DHT22;15971;50.772;6.100;2022-07-23T05:56:31;20.30;99.90
28839;DHT22;15971;50.772;6.100;2022-07-23T05:58:57;20.50;99.90
28839;DHT22;15971;50.772;6.100;2022-07-23T06:01:22;20.70;99.90
28839;DHT22;15971;50.772;6.100;2022-07-23T06:03:48;20.80;99.90
28839;DHT22;15971;50.772;6.100;2022-07-23T06:06:13;21.00;99.90
28839;DHT22;15971;50.772;6.100;2022-07-23T06:08:39;21.10;99.90
28839;DHT22;15971;50.772;6.100;2022-07-23T06:11:05;21.10;99.90
28839;DHT22;15971;50.772;6.100;2022-07-23T06:13:30;21.30;99.90
28839;DHT22;15971;50.772;6.100;2022-07-23T06:15:56;21.20;99.90
28839;DHT22;15971;50.772;6.100;2022-07-23T06:18:21;21.10;99.90
28839;DHT22;15971;50.772;6.100;2022-07-23T06:20:47;21.20;99.90
28839;DHT22;15971;50.772;6.100;2022-07-23T06:23:12;21.40;99.90
28839;DHT22;15971;50.772;6.100;2022-07-23T06:25:38;21.50;99.90
28839;DHT22;15971;50.772;6.100;2022-07-23T06:28:04;21.60;99.90
28839;DHT22;15971;50.772;6.100;2022-07-23T06:30:30;21.60;99.90
28839;DHT22;15971;50.772;6.100;2022-07-23T06:32:55;21.80;99.90
28839;DHT22;15971;50.772;6.100;2022-07-23T06:35:21;21.80;99.90
28839;DHT22;15971;50.772;6.100;2022-07-23T06:37:47;21.60;99.90
28839;DHT22;15971;50.772;6.100;2022-07-23T06:40:12;21.30;99.90
28839;DHT22;15971;50.772;6.100;2022-07-23T06:42:38;21.10;99.90
28839;DHT22;15971;50.772;6.100;2022-07-23T06:45:05;20.90;99.90
28839;DHT22;15971;50.772;6.100;2022-07-23T06:47:31;20.70;99.90
28839;DHT22;15971;50.772;6.100;2022-07-23T06:49:57;20.60;99.90
28839;DHT22;15971;50.772;6.100;2022-07-23T06:52:22;20.60;99.90
28839;DHT22;15971;50.772;6.100;2022-07-23T06:54:48;20.40;99.90
28839;DHT22;15971;50.772;6.100;2022-07-23T06:57:14;20.20;99.90
28839;DHT22;15971;50.772;6.100;2022-07-23T06:59:40;20.40;99.90
28839;DHT22;15971;50.772;6.100;2022-07-23T07:02:07;20.30;99.90
28839;DHT22;15971;50.772;6.100;2022-07-23T07:04:32;20.10;99.90
28839;DHT22;15971;50.772;6.100;2022-07-23T07:06:58;20.10;99.90
28839;DHT22;15971;50.772;6.100;2022-07-23T07:09:24;20.10;99.90
28839;DHT22;15971;50.772;6.100;2022-07-23T07:11:49;20.20;99.90
28839;DHT22;15971;50.772;6.100;2022-07-23T07:14:15;20.20;99.90
28839;DHT22;15971;50.772;6.100;2022-07-23T07:16:40;20.20;99.90
28839;DHT22;15971;50.772;6.100;2022-07-23T07:19:06;20.20;99.90
28839;DHT22;15971;50.772;6.100;2022-07-23T07:21:32;20.30;99.90
28839;DHT22;15971;50.772;6.100;2022-07-23T07:23:57;20.50;99.90
28839;DHT22;15971;50.772;6.100;2022-07-23T07:26:23;20.40;99.90
28839;DHT22;15971;50.772;6.100;2022-07-23T07:28:49;20.40;99.90
28839;DHT22;15971;50.772;6.100;2022-07-23T07:31:14;20.50;99.90
28839;DHT22;15971;50.772;6.100;2022-07-23T07:33:40;20.40;99.90
28839;DHT22;15971;50.772;6.100;2022-07-23T07:36:06;20.60;99.90
28839;DHT22;15971;50.772;6.100;2022-07-23T07:38:31;20.50;99.90
28839;DHT22;15971;50.772;6.100;2022-07-23T07:40:57;20.60;99.90
28839;DHT22;15971;50.772;6.100;2022-07-23T07:43:22;20.80;99.90
28839;DHT22;15971;50.772;6.100;2022-07-23T07:45:48;20.80;99.90
28839;DHT22;15971;50.772;6.100;2022-07-23T07:48:13;20.60;99.90
28839;DHT22;15971;50.772;6.100;2022-07-23T07:50:39;20.60;99.90
28839;DHT22;15971;50.772;6.100;2022-07-23T07:53:05;20.70;99.90
28839;DHT22;15971;50.772;6.100;2022-07-23T07:55:30;20.90;99.90
28839;DHT22;15971;50.772;6.100;2022-07-23T07:57:56;21.10;99.90
28839;DHT22;15971;50.772;6.100;2022-07-23T08:00:22;21.30;99.90
28839;DHT22;15971;50.772;6.100;2022-07-23T08:02:51;21.50;99.90
28839;DHT22;15971;50.772;6.100;2022-07-23T08:05:21;21.90;99.90
28839;DHT22;15971;50.772;6.100;2022-07-23T08:07:47;21.80;99.90
28839;DHT22;15971;50.772;6.100;2022-07-23T08:10:13;22.00;99.90
28839;DHT22;15971;50.772;6.100;2022-07-23T08:12:44;21.70;99.90
28839;DHT22;15971;50.772;6.100;2022-07-23T08:15:10;21.80;99.90
28839;DHT22;15971;50.772;6.100;2022-07-23T08:17:37;21.80;99.90
28839;DHT22;15971;50.772;6.100;2022-07-23T08:20:06;22.00;99.90
28839;DHT22;15971;50.772;6.100;2022-07-23T08:22:50;22.00;99.90
28839;DHT22;15971;50.772;6.100;2022-07-23T08:27:49;22.40;99.90
28839;DHT22;15971;50.772;6.100;2022-07-23T08:30:15;22.60;99.90
28839;DHT22;15971;50.772;6.100;2022-07-23T08:32:53;22.40;99.90
28839;DHT22;15971;50.772;6.100;2022-07-23T08:35:30;22.20;99.90
28839;DHT22;15971;50.772;6.100;2022-07-23T08:37:56;22.10;99.90
28839;DHT22;15971;50.772;6.100;2022-07-23T08:40:25;22.20;99.90
28839;DHT22;15971;50.772;6.100;2022-07-23T08:42:51;22.30;99.90
28839;DHT22;15971;50.772;6.100;2022-07-23T08:45:18;22.30;99.90
28839;DHT22;15971;50.772;6.100;2022-07-23T08:47:50;22.60;99.90
28839;DHT22;15971;50.772;6.100;2022-07-23T08:50:16;22.80;99.90
28839;DHT22;15971;50.772;6.100;2022-07-23T08:52:41;22.90;99.90
28839;DHT22;15971;50.772;6.100;2022-07-23T08:55:08;22.80;99.90
28839;DHT22;15971;50.772;6.100;2022-07-23T08:57:34;22.70;99.90
28839;DHT22;15971;50.772;6.100;2022-07-23T09:00:00;22.80;99.90
28839;DHT22;15971;50.772;6.100;2022-07-23T09:02:25;23.00;99.90
28839;DHT22;15971;50.772;6.100;2022-07-23T09:04:51;23.00;99.90
28839;DHT22;15971;50.772;6.100;2022-07-23T09:07:17;23.10;99.90
28839;DHT22;15971;50.772;6.100;2022-07-23T09:09:42;22.90;99.90
28839;DHT22;15971;50.772;6.100;2022-07-23T09:12:09;22.60;99.90
28839;DHT22;15971;50.772;6.100;2022-07-23T09:14:37;22.50;99.90
28839;DHT22;15971;50.772;6.100;2022-07-23T09:17:14;22.80;99.90
28839;DHT22;15971;50.772;6.100;2022-07-23T09:19:42;22.90;99.90
28839;DHT22;15971;50.772;6.100;2022-07-23T09:22:22;22.80;99.90
28839;DHT22;15971;50.772;6.100;2022-07-23T09:25:09;22.70;99.90
28839;DHT22;15971;50.772;6.100;2022-07-23T09:27:58;22.90;99.90
28839;DHT22;15971;50.772;6.100;2022-07-23T09:30:29;23.00;99.90
28839;DHT22;15971;50.772;6.100;2022-07-23T09:35:55;23.10;99.90
28839;DHT22;15971;50.772;6.100;2022-07-23T09:38:24;23.10;99.90
28839;DHT22;15971;50.772;6.100;2022-07-23T09:41:09;23.00;99.90
28839;DHT22;15971;50.772;6.100;2022-07-23T09:43:35;23.10;99.90
28839;DHT22;15971;50.772;6.100;2022-07-23T09:46:22;23.10;99.90
28839;DHT22;15971;50.772;6.100;2022-07-23T09:48:50;23.00;99.90
28839;DHT22;15971;50.772;6.100;2022-07-23T09:51:17;23.00;99.90
28839;DHT22;15971;50.772;6.100;2022-07-23T09:54:24;23.00;99.90
28839;DHT22;15971;50.772;6.100;2022-07-23T09:56:52;23.20;99.90
28839;DHT22;15971;50.772;6.100;2022-07-23T09:59:23;23.30;99.90
28839;DHT22;15971;50.772;6.100;2022-07-23T10:01:52;23.20;99.90
28839;DHT22;15971;50.772;6.100;2022-07-23T10:04:18;23.00;99.90
28839;DHT22;15971;50.772;6.100;2022-07-23T10:06:46;22.80;99.90
28839;DHT22;15971;50.772;6.100;2022-07-23T10:09:12;22.80;99.90
28839;DHT22;15971;50.772;6.100;2022-07-23T10:11:42;22.50;99.90
28839;DHT22;15971;50.772;6.100;2022-07-23T10:14:08;22.80;99.90
28839;DHT22;15971;50.772;6.100;2022-07-23T10:16:33;23.00;99.90
28839;DHT22;15971;50.772;6.100;2022-07-23T10:18:59;23.10;99.90
28839;DHT22;15971;50.772;6.100;2022-07-23T10:21:42;23.30;99.90
28839;DHT22;15971;50.772;6.100;2022-07-23T10:32:40;23.90;99.90
28839;DHT22;15971;50.772;6.100;2022-07-23T10:35:18;23.90;99.90
28839;DHT22;15971;50.772;6.100;2022-07-23T10:37:47;24.00;99.60
28839;DHT22;15971;50.772;6.100;2022-07-23T10:40:19;23.80;99.90
28839;DHT22;15971;50.772;6.100;2022-07-23T10:42:48;23.80;99.90
28839;DHT22;15971;50.772;6.100;2022-07-23T10:45:33;23.90;99.90
28839;DHT22;15971;50.772;6.100;2022-07-23T10:48:31;23.90;99.40
28839;DHT22;15971;50.772;6.100;2022-07-23T10:59:24;24.20;97.50
28839;DHT22;15971;50.772;6.100;2022-07-23T11:01:50;24.10;97.60
28839;DHT22;15971;50.772;6.100;2022-07-23T11:04:15;24.30;97.10
28839;DHT22;15971;50.772;6.100;2022-07-23T11:17:28;24.10;95.40
28839;DHT22;15971;50.772;6.100;2022-07-23T11:22:39;24.20;94.70
28839;DHT22;15971;50.772;6.100;2022-07-23T11:25:06;24.40;95.60
28839;DHT22;15971;50.772;6.100;2022-07-23T11:27:39;24.70;95.00
28839;DHT22;15971;50.772;6.100;2022-07-23T11:30:07;24.70;94.50
28839;DHT22;15971;50.772;6.100;2022-07-23T11:32:38;24.70;94.60
28839;DHT22;15971;50.772;6.100;2022-07-23T11:35:25;24.90;94.90
28839;DHT22;15971;50.772;6.100;2022-07-23T11:37:53;24.80;94.50
28839;DHT22;15971;50.772;6.100;2022-07-23T11:40:24;24.70;94.50
28839;DHT22;15971;50.772;6.100;2022-07-23T11:43:00;24.70;94.90
28839;DHT22;15971;50.772;6.100;2022-07-23T11:45:32;25.00;94.90
28839;DHT22;15971;50.772;6.100;2022-07-23T11:47:58;24.90;94.30
28839;DHT22;15971;50.772;6.100;2022-07-23T11:50:24;24.90;92.90
28839;DHT22;15971;50.772;6.100;2022-07-23T11:52:54;25.00;93.20
28839;DHT22;15971;50.772;6.100;2022-07-23T11:55:20;25.00;92.50
28839;DHT22;15971;50.772;6.100;2022-07-23T11:57:47;25.20;92.00
28839;DHT22;15971;50.772;6.100;2022-07-23T12:00:17;24.90;92.20
28839;DHT22;15971;50.772;6.100;2022-07-23T12:02:48;25.00;92.20
28839;DHT22;15971;50.772;6.100;2022-07-23T12:05:16;25.20;91.80
28839;DHT22;15971;50.772;6.100;2022-07-23T12:07:43;25.00;90.70
28839;DHT22;15971;50.772;6.100;2022-07-23T12:10:11;25.10;91.20
28839;DHT22;15971;50.772;6.100;2022-07-23T12:12:46;25.20;91.90
28839;DHT22;15971;50.772;6.100;2022-07-23T12:15:13;25.40;91.50
28839;DHT22;15971;50.772;6.100;2022-07-23T12:17:43;25.20;91.00
28839;DHT22;15971;50.772;6.100;2022-07-23T12:20:11;25.00;91.70
28839;DHT22;15971;50.772;6.100;2022-07-23T12:22:40;25.00;92.10
28839;DHT22;15971;50.772;6.100;2022-07-23T12:25:10;25.10;91.80
28839;DHT22;15971;50.772;6.100;2022-07-23T12:27:37;25.20;91.30
28839;DHT22;15971;50.772;6.100;2022-07-23T12:32:46;25.30;90.60
28839;DHT22;15971;50.772;6.100;2022-07-23T12:35:12;25.40;90.30
28839;DHT22;15971;50.772;6.100;2022-07-23T12:37:43;25.50;90.20
28839;DHT22;15971;50.772;6.100;2022-07-23T12:43:09;25.50;89.10
28839;DHT22;15971;50.772;6.100;2022-07-23T12:45:51;25.50;90.00
28839;DHT22;15971;50.772;6.100;2022-07-23T12:51:02;25.50;89.30
28839;DHT22;15971;50.772;6.100;2022-07-23T12:56:16;25.70;90.00
28839;DHT22;15971;50.772;6.100;2022-07-23T13:04:09;25.60;89.20
28839;DHT22;15971;50.772;6.100;2022-07-23T13:06:37;25.50;89.80
28839;DHT22;15971;50.772;6.100;2022-07-23T13:09:05;25.50;89.60
28839;DHT22;15971;50.772;6.100;2022-07-23T13:11:32;25.60;88.90
28839;DHT22;15971;50.772;6.100;2022-07-23T13:13:58;25.70;88.70
28839;DHT22;15971;50.772;6.100;2022-07-23T13:16:26;25.60;89.10
28839;DHT22;15971;50.772;6.100;2022-07-23T13:18:52;25.60;89.60
28839;DHT22;15971;50.772;6.100;2022-07-23T13:21:21;25.70;90.00
28839;DHT22;15971;50.772;6.100;2022-07-23T13:23:47;25.90;88.60
28839;DHT22;15971;50.772;6.100;2022-07-23T13:26:13;26.00;88.30
28839;DHT22;15971;50.772;6.100;2022-07-23T13:28:39;26.00;87.10
28839;DHT22;15971;50.772;6.100;2022-07-23T13:31:05;26.10;86.60
28839;DHT22;15971;50.772;6.100;2022-07-23T13:33:30;26.00;85.40
28839;DHT22;15971;50.772;6.100;2022-07-23T13:35:56;26.00;85.60
28839;DHT22;15971;50.772;6.100;2022-07-23T13:38:22;25.80;87.10
28839;DHT22;15971;50.772;6.100;2022-07-23T13:40:50;25.90;87.30
28839;DHT22;15971;50.772;6.100;2022-07-23T13:43:19;25.90;86.70
28839;DHT22;15971;50.772;6.100;2022-07-23T13:45:45;25.80;87.10
28839;DHT22;15971;50.772;6.100;2022-07-23T13:48:12;25.90;86.90
28839;DHT22;15971;50.772;6.100;2022-07-23T13:50:39;25.90;86.90
28839;DHT22;15971;50.772;6.100;2022-07-23T13:53:10;25.90;86.40
28839;DHT22;15971;50.772;6.100;2022-07-23T13:55:37;25.90;87.40
28839;DHT22;15971;50.772;6.100;2022-07-23T13:58:03;26.00;86.20
28839;DHT22;15971;50.772;6.100;2022-07-23T14:00:30;26.10;86.20
28839;DHT22;15971;50.772;6.100;2022-07-23T14:02:57;26.10;86.40
28839;DHT22;15971;50.772;6.100;2022-07-23T14:05:23;26.10;87.90
28839;DHT22;15971;50.772;6.100;2022-07-23T14:07:49;26.20;86.60
28839;DHT22;15971;50.772;6.100;2022-07-23T14:10:18;26.00;86.90
28839;DHT22;15971;50.772;6.100;2022-07-23T14:12:45;26.10;86.60
28839;DHT22;15971;50.772;6.100;2022-07-23T14:15:11;26.10;85.80
28839;DHT22;15971;50.772;6.100;2022-07-23T14:17:38;26.20;87.60
28839;DHT22;15971;50.772;6.100;2022-07-23T14:20:05;26.30;86.60
28839;DHT22;15971;50.772;6.100;2022-07-23T14:22:31;26.40;86.60
28839;DHT22;15971;50.772;6.100;2022-07-23T14:24:57;26.20;85.50
28839;DHT22;15971;50.772;6.100;2022-07-23T14:27:24;26.00;85.00
28839;DHT22;15971;50.772;6.100;2022-07-23T14:29:50;26.00;86.00
28839;DHT22;15971;50.772;6.100;2022-07-23T14:32:16;26.10;85.80
28839;DHT22;15971;50.772;6.100;2022-07-23T14:34:42;26.10;86.90
28839;DHT22;15971;50.772;6.100;2022-07-23T14:37:09;26.10;85.90
28839;DHT22;15971;50.772;6.100;2022-07-23T14:39:36;26.20;86.00
28839;DHT22;15971;50.772;6.100;2022-07-23T14:42:02;26.20;84.90
28839;DHT22;15971;50.772;6.100;2022-07-23T14:44:28;26.50;83.90
28839;DHT22;15971;50.772;6.100;2022-07-23T14:46:53;26.50;84.10
28839;DHT22;15971;50.772;6.100;2022-07-23T14:49:19;26.30;84.20
28839;DHT22;15971;50.772;6.100;2022-07-23T14:51:45;26.40;85.00
28839;DHT22;15971;50.772;6.100;2022-07-23T14:54:11;26.50;83.70
28839;DHT22;15971;50.772;6.100;2022-07-23T14:56:36;26.50;84.70
28839;DHT22;15971;50.772;6.100;2022-07-23T14:59:04;26.40;84.60
28839;DHT22;15971;50.772;6.100;2022-07-23T15:01:29;26.50;83.90
28839;DHT22;15971;50.772;6.100;2022-07-23T15:03:55;26.20;84.10
28839;DHT22;15971;50.772;6.100;2022-07-23T15:06:21;26.20;84.70
28839;DHT22;15971;50.772;6.100;2022-07-23T15:08:46;26.20;83.40
28839;DHT22;15971;50.772;6.100;2022-07-23T15:11:13;26.20;83.90
28839;DHT22;15971;50.772;6.100;2022-07-23T15:13:39;26.40;82.70
28839;DHT22;15971;50.772;6.100;2022-07-23T15:16:05;26.60;83.30
28839;DHT22;15971;50.772;6.100;2022-07-23T15:18:31;26.70;83.10
28839;DHT22;15971;50.772;6.100;2022-07-23T15:20:57;26.60;85.40
28839;DHT22;15971;50.772;6.100;2022-07-23T15:23:23;26.70;85.80
28839;DHT22;15971;50.772;6.100;2022-07-23T15:25:49;26.60;84.10
28839;DHT22;15971;50.772;6.100;2022-07-23T15:28:15;26.70;84.20
28839;DHT22;15971;50.772;6.100;2022-07-23T15:30:40;26.70;85.30
28839;DHT22;15971;50.772;6.100;2022-07-23T15:33:07;26.80;83.80
28839;DHT22;15971;50.772;6.100;2022-07-23T15:35:33;26.50;82.50
28839;DHT22;15971;50.772;6.100;2022-07-23T15:37:58;26.50;85.60
28839;DHT22;15971;50.772;6.100;2022-07-23T15:40:24;26.50;84.60
28839;DHT22;15971;50.772;6.100;2022-07-23T15:42:50;26.50;83.00
28839;DHT22;15971;50.772;6.100;2022-07-23T15:45:16;26.60;82.90
28839;DHT22;15971;50.772;6.100;2022-07-23T15:47:42;26.60;82.20
28839;DHT22;15971;50.772;6.100;2022-07-23T15:50:08;26.50;83.30
28839;DHT22;15971;50.772;6.100;2022-07-23T15:52:35;26.60;82.00
28839;DHT22;15971;50.772;6.100;2022-07-23T15:55:01;26.70;82.30
28839;DHT22;15971;50.772;6.100;2022-07-23T15:57:27;26.70;84.00
28839;DHT22;15971;50.772;6.100;2022-07-23T15:59:53;26.80;83.90
28839;DHT22;15971;50.772;6.100;2022-07-23T16:02:22;26.70;82.90
28839;DHT22;15971;50.772;6.100;2022-07-23T16:04:48;26.90;81.70
28839;DHT22;15971;50.772;6.100;2022-07-23T16:07:16;26.90;81.20
28839;DHT22;15971;50.772;6.100;2022-07-23T16:09:42;26.90;82.80
28839;DHT22;15971;50.772;6.100;2022-07-23T16:12:08;27.10;81.40
28839;DHT22;15971;50.772;6.100;2022-07-23T16:14:34;27.00;84.30
28839;DHT22;15971;50.772;6.100;2022-07-23T16:17:00;27.00;80.10
28839;DHT22;15971;50.772;6.100;2022-07-23T16:19:25;26.80;79.60
28839;DHT22;15971;50.772;6.100;2022-07-23T16:21:52;26.70;81.40